Station Historical Data from High Park Village Toronto
 
Daily Summary for January 16, 2018 Units:  Metric    English   Both
« Previous Day
Next Day »
Daily Weekly Monthly Yearly Custom
  Current: High: Low: Average:
Temperature: -5.1 °C -4.6 °C -5.1 °C -4.8 °C
Dew Point: -7.8 °C -7.4 °C -7.9 °C -7.7 °C
Humidity: 81% 81% 80% 81%
Wind Speed: 0km/h 1.9km/h 0km/h 0.2km/h
Wind Gust: 0km/h 1.9km/h - -
WindCalm - - SW
Pressure: 1025.6 hPa 1025.6 hPa 1024.9 hPa -
Precipitation: 0 mm      
Historical Graphs
 
 
Tabular Data for January 16, 2018
Time Temperature Dew Point Pressure Wind Wind Speed Wind Gust Humidity Rainfall Rate (Hourly) solar Conditions
00:05 -4.9 °C -7.9 °C 1025.3 hPa Calm     80% 0 mm 0.0 W/m2
00:11 -4.9 °C -7.9 °C 1025.3 hPa Calm     80% 0 mm 0.0 W/m2
00:18 -5 °C -7.9 °C 1025.3 hPa Calm     80% 0 mm 0.0 W/m2
00:25 -5.1 °C -7.9 °C 1025.3 hPa Calm     80% 0 mm 0.0 W/m2
00:37 -5.1 °C -7.9 °C 1025.3 hPa Calm     80% 0 mm 0.0 W/m2
00:46 -5.1 °C -7.9 °C 1025.3 hPa Calm     80% 0 mm 0.0 W/m2
00:55 -5 °C -7.9 °C 1024.9 hPa SW 1.6 km/h   80% 0 mm 0.0 W/m2
01:04 -4.9 °C -7.9 °C 1024.9 hPa Calm     80% 0 mm 0.0 W/m2
01:25 -4.8 °C -7.6 °C 1024.9 hPa Calm     81% 0 mm 0.0 W/m2
01:39 -4.8 °C -7.6 °C 1024.9 hPa SW 1.9 km/h 1.9 km/h 81% 0 mm 0.0 W/m2
01:47 -4.7 °C -7.7 °C 1025.3 hPa Calm     80% 0 mm 0.0 W/m2
01:53 -4.7 °C -7.5 °C 1025.3 hPa Calm     81% 0 mm 0.0 W/m2
02:02 -4.7 °C -7.5 °C 1025.3 hPa Calm     81% 0 mm 0.0 W/m2
02:09 -4.7 °C -7.5 °C 1025.3 hPa SW 1.9 km/h   81% 0 mm 0.0 W/m2
02:17 -4.7 °C -7.5 °C 1025.3 hPa Calm     81% 0 mm 0.0 W/m2
02:23 -4.7 °C -7.5 °C 1025.3 hPa Calm     81% 0 mm 0.0 W/m2
02:38 -4.7 °C -7.4 °C 1025.3 hPa Calm     81% 0 mm 0.0 W/m2
02:46 -4.7 °C -7.4 °C 1025.3 hPa Calm     81% 0 mm 0.0 W/m2
02:57 -4.6 °C -7.4 °C 1025.3 hPa Calm     81% 0 mm 0.0 W/m2
03:13 -4.8 °C -7.6 °C 1025.3 hPa Calm     81% 0 mm 0.0 W/m2
03:20 -4.7 °C -7.5 °C 1025.3 hPa Calm     81% 0 mm 0.0 W/m2
03:28 -4.7 °C -7.5 °C 1025.3 hPa Calm     81% 0 mm 0.0 W/m2
03:34 -4.7 °C -7.5 °C 1025.3 hPa Calm     81% 0 mm 0.0 W/m2
03:47 -4.8 °C -7.6 °C 1025.3 hPa Calm     81% 0 mm 0.0 W/m2
03:54 -4.8 °C -7.6 °C 1025.3 hPa Calm     81% 0 mm 0.0 W/m2
04:01 -4.8 °C -7.6 °C 1025.6 hPa Calm     81% 0 mm 0.0 W/m2
04:06 -4.8 °C -7.6 °C 1025.6 hPa Calm     81% 0 mm 0.0 W/m2
04:20 -4.9 °C -7.7 °C 1025.6 hPa Calm     81% 0 mm 0.0 W/m2
04:25 -4.9 °C -7.7 °C 1025.6 hPa Calm     81% 0 mm 0.0 W/m2
04:32 -5.1 °C -7.8 °C 1025.6 hPa Calm     81% 0 mm 0.0 W/m2
Historical Data from High Park Village Toronto since August 2007
Compliments of Weather Underground - 2 mb